createdAt,value
2023-04-25T04:15:51.819Z,17.53
2023-04-25T04:18:26.407Z,17.37
2023-04-25T04:20:57.187Z,18.50
2023-04-25T04:23:28.244Z,15.17
2023-04-25T04:25:57.686Z,22.13
2023-04-25T04:28:26.425Z,19.63
2023-04-25T04:30:56.990Z,18.23
2023-04-25T04:33:26.283Z,19.47
2023-04-25T04:35:54.689Z,16.77
2023-04-25T04:38:23.119Z,20.07
2023-04-25T04:40:51.396Z,17.77
2023-04-25T04:43:21.347Z,16.00
2023-04-25T04:45:51.036Z,17.70
2023-04-25T04:48:20.301Z,24.37
2023-04-25T04:50:51.220Z,17.43
2023-04-25T04:53:20.650Z,21.90
2023-04-25T04:55:48.640Z,16.43
2023-04-25T04:58:17.471Z,18.03
2023-04-25T05:00:47.481Z,15.37
2023-04-25T05:03:15.558Z,22.00
2023-04-25T05:05:45.826Z,18.73
2023-04-25T05:08:13.771Z,19.60
2023-04-25T05:10:42.684Z,17.93
2023-04-25T05:13:30.440Z,19.27
2023-04-25T05:16:00.450Z,20.70
2023-04-25T05:18:28.285Z,19.27
2023-04-25T05:20:57.632Z,19.57
2023-04-25T05:23:26.025Z,26.50
2023-04-25T05:25:55.890Z,16.80
2023-04-25T05:28:23.663Z,15.80
2023-04-25T05:30:51.644Z,19.73
2023-04-25T05:33:19.417Z,27.87
2023-04-25T05:35:47.478Z,24.37
2023-04-25T05:38:16.796Z,18.30
2023-04-25T05:40:44.681Z,18.97
2023-04-25T05:43:30.376Z,16.50
2023-04-25T05:45:58.353Z,19.40
2023-04-25T05:48:29.511Z,18.53
2023-04-25T05:50:58.358Z,20.00
2023-04-25T05:53:33.318Z,13.80
2023-04-25T05:56:01.653Z,16.97
2023-04-25T05:59:31.828Z,14.60
2023-04-25T06:02:10.360Z,15.40
2023-04-25T06:04:46.586Z,14.53
2023-04-25T06:07:26.319Z,18.23
2023-04-25T06:09:56.052Z,19.73
2023-04-25T06:12:45.205Z,13.10
2023-04-25T06:15:27.273Z,13.43
2023-04-25T06:17:56.964Z,15.33
2023-04-25T06:20:26.430Z,18.07
2023-04-25T06:22:54.765Z,15.40
2023-04-25T06:25:45.461Z,14.50
2023-04-25T06:28:13.607Z,17.80
2023-04-25T06:30:56.475Z,17.93
2023-04-25T06:33:25.453Z,14.97
2023-04-25T06:35:53.957Z,13.83
2023-04-25T06:39:03.195Z,14.00
2023-04-25T06:41:51.187Z,11.33
2023-04-25T06:44:37.903Z,13.70
2023-04-25T06:47:15.256Z,12.43
2023-04-25T06:49:43.310Z,11.10
2023-04-25T06:52:19.626Z,12.17
2023-04-25T06:54:49.718Z,11.40
2023-04-25T06:57:18.968Z,11.03
2023-04-25T06:59:47.227Z,11.47
2023-04-25T07:02:21.135Z,8.83
2023-04-25T07:04:49.093Z,11.53
2023-04-25T07:07:18.600Z,15.13
2023-04-25T07:09:46.522Z,16.43
2023-04-25T07:12:14.412Z,10.37
2023-04-25T07:14:43.769Z,8.17
2023-04-25T07:17:13.395Z,10.23
2023-04-25T07:19:44.224Z,9.67
2023-04-25T07:22:14.897Z,8.87
2023-04-25T07:24:52.788Z,9.87
2023-04-25T07:30:04.953Z,9.37
2023-04-25T07:36:07.780Z,11.13
2023-04-25T07:38:57.583Z,11.17
2023-04-25T07:44:49.913Z,12.40
2023-04-25T07:48:01.343Z,10.23
2023-04-25T07:50:39.185Z,11.90
2023-04-25T07:53:09.995Z,11.80
2023-04-25T07:55:41.463Z,9.57
2023-04-25T07:58:12.924Z,10.53
2023-04-25T08:00:43.200Z,10.37
2023-04-25T08:03:29.082Z,11.37
2023-04-25T08:05:58.972Z,12.10
2023-04-25T08:08:27.059Z,11.83
2023-04-25T08:15:20.225Z,10.70
2023-04-25T08:17:48.637Z,7.23
2023-04-25T08:20:16.739Z,7.40
2023-04-25T08:22:46.241Z,6.37
2023-04-25T08:25:15.582Z,5.80
2023-04-25T08:27:44.020Z,6.17
2023-04-25T08:30:24.464Z,5.70
2023-04-25T08:32:52.701Z,7.07
2023-04-25T08:38:03.771Z,7.40
2023-04-25T08:40:32.328Z,5.70
2023-04-25T08:43:21.794Z,5.10
2023-04-25T08:45:49.777Z,5.97
2023-04-25T08:48:18.326Z,5.63
2023-04-25T08:50:47.719Z,6.63
2023-04-25T08:53:22.781Z,8.23
2023-04-25T08:55:56.651Z,3.50
2023-04-25T08:58:25.232Z,7.00
2023-04-25T09:00:53.846Z,8.13
2023-04-25T09:03:22.228Z,6.27
2023-04-25T09:05:51.139Z,5.00
2023-04-25T09:08:51.600Z,6.90
2023-04-25T09:11:23.969Z,6.87
2023-04-25T09:13:52.171Z,7.93
2023-04-25T09:16:22.808Z,11.90
2023-04-25T09:23:10.913Z,4.93
2023-04-25T09:43:50.532Z,7.90
2023-04-25T09:46:26.449Z,4.57
2023-04-25T09:48:55.224Z,4.20
2023-04-25T10:06:19.401Z,4.87
2023-04-25T10:08:47.915Z,5.63
2023-04-25T10:11:16.962Z,7.80
2023-04-25T10:13:44.797Z,8.77
2023-04-25T10:16:13.049Z,5.60
2023-04-25T10:18:41.129Z,4.80
2023-04-25T10:21:09.354Z,3.60
2023-04-25T10:23:38.940Z,6.00
2023-04-25T10:26:08.624Z,8.23
2023-04-25T10:28:57.571Z,4.53
2023-04-25T10:31:25.547Z,5.90
2023-04-25T10:34:52.920Z,3.93
2023-04-25T10:37:23.568Z,5.70
2023-04-25T10:39:55.776Z,2.93
2023-04-25T10:45:04.245Z,3.43
2023-04-25T13:02:44.704Z,3.90
2023-04-25T13:10:15.731Z,4.00
2023-04-25T13:24:12.893Z,3.77
2023-04-25T14:04:13.558Z,2.63
2023-04-25T14:51:33.642Z,2.70
2023-04-25T14:53:00.778Z,2.27
2023-04-25T15:10:19.451Z,4.87
2023-04-25T16:08:42.220Z,2.80
2023-04-25T16:54:06.995Z,3.60
2023-04-25T17:01:25.626Z,4.53
2023-04-25T17:04:33.106Z,3.53
2023-04-25T17:07:11.466Z,4.07
2023-04-25T17:27:53.401Z,3.37
2023-04-25T17:30:23.768Z,2.43
2023-04-25T17:51:31.467Z,4.17
2023-04-25T18:03:11.656Z,5.67
